Time;durP1;ratioP1;P1;durP2;ratioP2;P2;SDS_P1;SDS_P2;PMS_P1;PMS_P2;Temp;Humidity;BMP_temperature;BMP_pressure;BME280_temperature;BME280_humidity;BME280_pressure;Samples;Min_cycle;Max_cycle;Signal;HPM_P1;HPM_P2
2022/07/09 00:01:27;;;;;;;1.70;1.60;;;14.00;81.30;;;;;;5056128;28;20692;-88
2022/07/09 00:03:54;;;;;;;2.40;2.20;;;14.00;79.20;;;;;;5056155;28;20700;-89
2022/07/09 00:06:23;;;;;;;1.87;1.77;;;14.00;78.70;;;;;;5053954;28;20699;-89
2022/07/09 00:08:50;;;;;;;4.57;2.90;;;14.00;78.40;;;;;;5054624;28;21201;-89
2022/07/09 00:11:20;;;;;;;7.30;2.80;;;14.00;78.80;;;;;;5056285;28;20610;-89
2022/07/09 00:13:47;;;;;;;2.30;2.20;;;14.00;80.40;;;;;;5058895;28;20835;-89
2022/07/09 00:16:15;;;;;;;3.30;2.57;;;14.00;79.90;;;;;;5054017;28;20605;-88
2022/07/09 00:18:42;;;;;;;2.87;2.60;;;;;;;;;;5057428;28;20633;-89
2022/07/09 00:21:10;;;;;;;2.07;1.87;;;13.70;81.20;;;;;;5053592;28;20716;-88
2022/07/09 00:23:40;;;;;;;2.17;2.07;;;13.60;82.40;;;;;;5052928;28;20653;-89
2022/07/09 00:26:07;;;;;;;1.60;1.50;;;13.50;83.20;;;;;;5052642;28;21325;-88
2022/07/09 00:28:34;;;;;;;2.20;1.80;;;13.50;83.30;;;;;;5059498;28;20749;-90
2022/07/09 00:31:02;;;;;;;2.40;2.20;;;13.40;84.40;;;;;;5049734;28;20628;-89
2022/07/09 00:33:30;;;;;;;2.83;2.27;;;;;;;;;;5054481;28;20618;-86
2022/07/09 00:35:57;;;;;;;4.50;3.37;;;13.50;84.00;;;;;;5060410;28;20622;-87
2022/07/09 00:38:25;;;;;;;3.03;2.17;;;13.60;84.20;;;;;;5059412;28;20660;-88
2022/07/09 00:40:54;;;;;;;2.77;2.17;;;13.60;84.20;;;;;;5056224;28;20630;-86
2022/07/09 00:43:23;;;;;;;3.63;3.07;;;13.60;84.00;;;;;;5055795;28;20621;-87
2022/07/09 00:45:54;;;;;;;2.77;2.10;;;13.60;82.20;;;;;;5058546;28;20649;-87
2022/07/09 00:48:22;;;;;;;4.23;2.30;;;13.70;81.00;;;;;;5056474;28;20707;-87
2022/07/09 00:50:50;;;;;;;2.70;2.23;;;14.30;81.50;;;;;;5054098;28;20682;-88
2022/07/09 00:53:20;;;;;;;2.53;2.33;;;13.70;81.20;;;;;;5053503;28;20625;-87
2022/07/09 00:55:49;;;;;;;1.80;1.70;;;13.70;84.30;;;;;;5054368;28;21022;-86
2022/07/09 00:58:19;;;;;;;2.60;2.40;;;13.50;84.80;;;;;;5059087;28;21557;-88
2022/07/09 01:00:46;;;;;;;1.43;1.33;;;13.50;85.60;;;;;;5055649;28;21438;-87
2022/07/09 01:03:13;;;;;;;1.73;1.63;;;13.60;85.10;;;;;;5053720;28;20613;-87
2022/07/09 01:05:40;;;;;;;1.80;1.70;;;13.60;85.00;;;;;;5052019;28;20741;-88
2022/07/09 01:08:09;;;;;;;0.93;0.93;;;13.40;84.90;;;;;;5055674;28;20609;-87
2022/07/09 01:10:36;;;;;;;1.63;1.53;;;13.30;84.20;;;;;;5056671;28;20717;-87
2022/07/09 01:13:05;;;;;;;1.50;1.40;;;13.20;84.40;;;;;;5055720;28;20613;-88
2022/07/09 01:15:35;;;;;;;3.03;1.37;;;13.40;83.00;;;;;;5059105;28;20614;-86
2022/07/09 01:18:02;;;;;;;2.07;1.50;;;13.60;81.70;;;;;;5058396;28;20620;-87
2022/07/09 01:20:31;;;;;;;1.43;1.27;;;13.60;81.10;;;;;;5051753;28;21196;-87
2022/07/09 01:23:00;;;;;;;2.60;2.20;;;13.70;80.60;;;;;;5055484;28;20619;-87
2022/07/09 01:25:34;;;;;;;1.33;1.23;;;13.50;81.20;;;;;;5057344;28;20646;-87
2022/07/09 01:28:01;;;;;;;6.53;1.93;;;13.60;81.50;;;;;;5054815;28;20617;-88
2022/07/09 01:30:29;;;;;;;2.60;1.30;;;13.50;81.70;;;;;;5054606;28;20949;-86
2022/07/09 01:32:57;;;;;;;1.40;1.30;;;13.50;81.70;;;;;;5056773;28;20687;-88
2022/07/09 01:35:25;;;;;;;1.63;1.47;;;13.50;82.30;;;;;;5049293;28;20645;-87
2022/07/09 01:37:54;;;;;;;2.83;2.63;;;13.10;85.00;;;;;;5056929;28;20620;-87
2022/07/09 01:40:22;;;;;;;1.60;1.50;;;13.30;85.70;;;;;;5055559;28;20613;-87
2022/07/09 01:42:50;;;;;;;4.47;1.30;;;13.10;85.00;;;;;;5054569;28;20625;-88
2022/07/09 01:45:18;;;;;;;2.07;1.97;;;13.10;86.30;;;;;;5057161;28;20632;-87
2022/07/09 01:47:46;;;;;;;1.73;1.60;;;13.20;85.10;;;;;;5055482;28;20721;-88
2022/07/09 01:50:14;;;;;;;1.70;1.60;;;13.50;85.00;;;;;;5056669;28;20960;-87
2022/07/09 01:52:42;;;;;;;2.50;2.30;;;13.20;84.20;;;;;;5051843;28;21218;-87
2022/07/09 01:55:11;;;;;;;1.80;1.70;;;13.10;83.60;;;;;;5054815;28;20632;-87
2022/07/09 01:57:38;;;;;;;1.50;1.40;;;13.10;84.80;;;;;;5054320;28;20610;-87
2022/07/09 02:00:07;;;;;;;1.77;1.60;;;13.10;86.40;;;;;;5055766;28;20683;-87
2022/07/09 02:02:34;;;;;;;1.63;1.50;;;;;;;;;;5055745;28;20629;-87
2022/07/09 02:05:01;;;;;;;2.30;1.73;;;12.80;86.70;;;;;;5053738;28;21020;-87
2022/07/09 02:07:28;;;;;;;2.20;1.70;;;;;;;;;;5046415;28;21049;-88
2022/07/09 02:09:55;;;;;;;1.00;1.00;;;12.80;86.40;;;;;;5055373;28;20610;-87
2022/07/09 02:12:24;;;;;;;1.97;1.87;;;12.60;87.20;;;;;;5057421;28;20637;-87
2022/07/09 02:14:50;;;;;;;2.50;2.03;;;12.60;88.50;;;;;;5048545;28;20610;-88
2022/07/09 02:17:17;;;;;;;2.93;2.40;;;12.50;88.30;;;;;;5050095;28;20710;-88
2022/07/09 02:19:44;;;;;;;2.10;1.90;;;12.50;90.10;;;;;;5055327;28;20623;-88
2022/07/09 02:22:11;;;;;;;1.97;1.73;;;12.50;89.10;;;;;;5052121;28;21340;-86
2022/07/09 02:24:38;;;;;;;2.13;1.53;;;12.60;89.70;;;;;;5059191;28;20610;-86
2022/07/09 02:27:06;;;;;;;2.13;1.90;;;12.70;87.50;;;;;;5049658;28;20654;-88
2022/07/09 02:29:35;;;;;;;2.20;2.00;;;12.60;86.80;;;;;;5050063;28;20614;-88
2022/07/09 02:32:02;;;;;;;1.83;1.67;;;;;;;;;;5058451;28;20709;-89
2022/07/09 02:34:29;;;;;;;2.20;1.83;;;12.60;87.30;;;;;;5052818;28;20757;-87
2022/07/09 02:36:57;;;;;;;2.63;2.40;;;12.70;89.20;;;;;;5047600;28;20614;-87
2022/07/09 02:39:24;;;;;;;2.17;1.97;;;;;;;;;;5046277;28;20637;-88
2022/07/09 02:41:52;;;;;;;6.57;1.83;;;12.50;90.00;;;;;;5049714;28;20632;-90
2022/07/09 02:44:21;;;;;;;1.70;1.50;;;12.50;90.80;;;;;;5054410;28;20708;-89
2022/07/09 02:46:50;;;;;;;1.67;1.50;;;12.50;87.80;;;;;;5054598;28;20660;-88
2022/07/09 02:49:16;;;;;;;1.67;1.57;;;12.50;89.70;;;;;;5056679;28;20637;-87
2022/07/09 02:51:43;;;;;;;1.93;1.83;;;12.50;89.50;;;;;;5056330;28;20625;-89
2022/07/09 02:54:10;;;;;;;2.40;2.13;;;12.50;90.20;;;;;;5051454;28;21246;-88
2022/07/09 02:56:37;;;;;;;1.43;1.33;;;12.40;90.10;;;;;;5055985;28;20618;-89
2022/07/09 02:59:05;;;;;;;1.67;1.57;;;;;;;;;;5050983;28;20621;-88
2022/07/09 03:01:31;;;;;;;2.20;2.00;;;12.40;89.30;;;;;;5055274;28;20621;-88
2022/07/09 03:04:00;;;;;;;3.20;2.50;;;12.50;89.50;;;;;;5049675;28;21098;-88
2022/07/09 03:06:28;;;;;;;2.30;2.10;;;12.40;90.00;;;;;;5053795;28;20654;-89
2022/07/09 03:08:55;;;;;;;2.03;1.83;;;12.40;90.60;;;;;;5053370;28;20613;-87
2022/07/09 03:11:21;;;;;;;3.00;1.40;;;12.40;90.30;;;;;;5057100;28;20613;-88
2022/07/09 03:13:48;;;;;;;5.80;1.80;;;12.40;89.50;;;;;;5051925;28;20625;-88
2022/07/09 03:16:15;;;;;;;2.23;1.77;;;11.40;87.70;;;;;;5050228;28;20702;-88
2022/07/09 03:18:42;;;;;;;3.70;2.27;;;12.40;89.40;;;;;;5057578;28;21025;-87
2022/07/09 03:21:11;;;;;;;3.10;1.50;;;12.40;90.20;;;;;;5055163;28;20675;-88
2022/07/09 03:23:39;;;;;;;1.33;1.23;;;12.40;90.70;;;;;;5060001;28;20632;-86
2022/07/09 03:26:06;;;;;;;3.03;2.53;;;12.30;90.70;;;;;;5059544;28;21244;-88
2022/07/09 03:28:33;;;;;;;1.87;1.77;;;12.30;90.00;;;;;;5050786;28;20648;-88
2022/07/09 03:31:01;;;;;;;2.53;2.33;;;12.40;90.40;;;;;;5054497;28;20632;-89
2022/07/09 03:33:28;;;;;;;1.57;1.47;;;12.40;90.60;;;;;;5052108;28;20680;-88
2022/07/09 03:35:56;;;;;;;1.73;1.63;;;12.30;90.80;;;;;;5052869;28;21204;-88
2022/07/09 03:38:24;;;;;;;2.10;1.93;;;12.20;90.90;;;;;;5057208;28;20629;-88
2022/07/09 03:40:52;;;;;;;1.60;1.50;;;12.30;91.20;;;;;;5057705;28;20708;-88
2022/07/09 03:43:19;;;;;;;1.90;1.57;;;12.30;91.20;;;;;;5060102;28;20653;-87
2022/07/09 03:45:46;;;;;;;1.80;1.40;;;12.30;91.50;;;;;;5062516;28;20647;-88
2022/07/09 03:48:13;;;;;;;2.33;1.77;;;12.30;91.80;;;;;;5055378;28;20633;-87
2022/07/09 03:50:40;;;;;;;1.93;1.60;;;12.30;91.90;;;;;;5059785;28;20625;-88
2022/07/09 03:53:07;;;;;;;2.20;2.10;;;12.50;91.50;;;;;;5056959;28;20633;-88
2022/07/09 03:55:35;;;;;;;2.67;1.60;;;12.60;91.90;;;;;;5058974;28;20613;-89
2022/07/09 03:58:02;;;;;;;1.50;1.40;;;12.50;92.00;;;;;;5054119;28;21032;-86
2022/07/09 04:00:29;;;;;;;1.53;1.37;;;12.50;92.20;;;;;;5059922;28;21188;-88
2022/07/09 04:02:56;;;;;;;2.70;1.90;;;12.60;92.10;;;;;;5059802;28;20635;-88
2022/07/09 04:05:23;;;;;;;3.50;1.80;;;12.60;91.60;;;;;;5061940;28;20755;-88
2022/07/09 04:07:50;;;;;;;2.43;1.50;;;12.50;91.90;;;;;;5051802;28;20723;-89
2022/07/09 04:10:17;;;;;;;1.57;1.40;;;12.40;91.80;;;;;;5053881;28;20705;-89
2022/07/09 04:12:45;;;;;;;2.60;1.97;;;12.50;91.90;;;;;;5054465;28;20617;-88
2022/07/09 04:15:12;;;;;;;1.20;1.10;;;;;;;;;;5058967;28;20745;-88
2022/07/09 04:17:39;;;;;;;1.73;1.60;;;12.50;91.80;;;;;;5052724;28;21193;-89
2022/07/09 04:20:07;;;;;;;1.83;1.53;;;12.60;92.50;;;;;;5060742;28;20716;-88
2022/07/09 04:22:34;;;;;;;1.10;1.10;;;12.70;92.40;;;;;;5058541;28;20621;-88
2022/07/09 04:25:01;;;;;;;1.53;1.40;;;12.80;92.10;;;;;;5063072;28;20621;-88
2022/07/09 04:27:28;;;;;;;2.20;1.77;;;12.90;91.00;;;;;;5057041;28;20676;-88
2022/07/09 04:29:57;;;;;;;1.77;1.47;;;12.90;91.50;;;;;;5058078;28;20606;-89
2022/07/09 04:32:24;;;;;;;5.40;2.23;;;13.00;91.60;;;;;;5060976;28;20624;-89
2022/07/09 04:34:52;;;;;;;2.10;1.63;;;;;;;;;;5055549;28;20626;-89
2022/07/09 04:37:19;;;;;;;2.87;2.20;;;13.00;90.70;;;;;;5052261;28;20621;-88
2022/07/09 04:39:46;;;;;;;1.60;1.50;;;13.10;89.80;;;;;;5053655;28;20708;-86
2022/07/09 04:42:13;;;;;;;4.00;2.70;;;13.20;89.90;;;;;;5053283;28;20627;-87
2022/07/09 04:44:41;;;;;;;1.70;1.60;;;13.20;89.50;;;;;;5051179;28;21106;-85
2022/07/09 04:47:10;;;;;;;1.80;1.47;;;13.30;87.90;;;;;;5052308;28;20648;-87
2022/07/09 04:49:37;;;;;;;2.47;1.70;;;13.30;89.90;;;;;;5051633;28;20717;-86
2022/07/09 04:52:05;;;;;;;1.47;1.37;;;13.20;89.90;;;;;;5048305;28;20669;-86
2022/07/09 04:54:32;;;;;;;1.70;1.50;;;13.10;90.70;;;;;;5052753;28;20626;-85
2022/07/09 04:56:59;;;;;;;1.50;1.40;;;13.20;90.80;;;;;;5056169;28;20610;-85
2022/07/09 04:59:26;;;;;;;2.53;1.83;;;13.20;90.80;;;;;;5054816;28;20712;-85
2022/07/09 05:01:53;;;;;;;1.90;1.70;;;13.20;90.50;;;;;;5056573;28;20717;-86
2022/07/09 05:04:23;;;;;;;1.80;1.70;;;13.20;90.80;;;;;;5055287;28;20674;-85
2022/07/09 05:06:50;;;;;;;2.00;1.50;;;13.30;90.70;;;;;;5053011;28;20656;-86
2022/07/09 05:09:17;;;;;;;1.30;1.20;;;13.60;91.00;;;;;;5053706;28;20680;-87
2022/07/09 05:11:44;;;;;;;1.50;1.40;;;13.60;90.40;;;;;;5056489;28;20676;-85
2022/07/09 05:14:12;;;;;;;1.40;1.27;;;13.90;89.90;;;;;;5055506;28;20617;-85
2022/07/09 05:16:44;;;;;;;1.80;1.70;;;;;;;;;;5054832;28;20626;-86
2022/07/09 05:19:11;;;;;;;1.60;1.50;;;14.10;88.20;;;;;;5054884;28;20629;-86
2022/07/09 05:21:39;;;;;;;1.67;1.40;;;14.20;88.70;;;;;;5049717;28;20669;-86
2022/07/09 05:24:07;;;;;;;4.97;1.70;;;14.40;86.10;;;;;;5056789;28;20703;-85
2022/07/09 05:26:34;;;;;;;2.70;2.47;;;14.30;85.80;;;;;;5050135;28;21364;-87
2022/07/09 05:29:01;;;;;;;1.83;1.67;;;14.40;84.60;;;;;;5057537;28;21142;-86
2022/07/09 05:31:28;;;;;;;1.90;1.57;;;14.60;85.40;;;;;;5054151;28;21284;-86
2022/07/09 05:33:54;;;;;;;2.20;2.00;;;14.60;85.50;;;;;;5052234;28;20645;-86
2022/07/09 05:36:21;;;;;;;1.57;1.47;;;14.70;85.10;;;;;;5056265;28;20706;-86
2022/07/09 05:38:49;;;;;;;2.67;2.13;;;14.70;85.50;;;;;;5051028;28;21235;-85
2022/07/09 05:41:18;;;;;;;1.87;1.57;;;14.70;85.00;;;;;;5053244;28;21175;-86
2022/07/09 05:43:44;;;;;;;1.20;1.10;;;14.70;83.90;;;;;;5051636;28;20623;-86
2022/07/09 05:46:11;;;;;;;1.20;1.10;;;14.90;85.30;;;;;;5054004;28;20724;-86
2022/07/09 05:48:38;;;;;;;2.17;2.00;;;15.00;85.10;;;;;;5057887;28;20720;-86
2022/07/09 05:51:05;;;;;;;1.93;1.80;;;15.30;84.00;;;;;;5057597;28;21217;-85
2022/07/09 05:53:32;;;;;;;1.20;1.10;;;15.30;83.70;;;;;;5053141;28;20690;-85
2022/07/09 05:56:01;;;;;;;1.57;1.47;;;15.50;83.70;;;;;;5054628;28;20646;-86
2022/07/09 05:58:27;;;;;;;2.30;1.87;;;15.50;83.30;;;;;;5057007;28;20728;-85
2022/07/09 06:00:54;;;;;;;5.50;2.10;;;15.60;84.60;;;;;;5048704;28;21400;-85
2022/07/09 06:03:21;;;;;;;1.73;1.33;;;15.70;85.50;;;;;;5053047;28;21123;-86
2022/07/09 06:05:48;;;;;;;1.93;1.73;;;15.80;85.10;;;;;;5053234;28;20623;-85
2022/07/09 06:08:15;;;;;;;3.67;1.83;;;16.00;84.10;;;;;;5053674;28;21312;-85
2022/07/09 06:10:42;;;;;;;1.63;1.50;;;16.10;83.70;;;;;;5048989;28;20622;-86
2022/07/09 06:13:10;;;;;;;1.33;1.00;;;16.20;83.50;;;;;;5059699;28;20634;-85
2022/07/09 06:15:37;;;;;;;1.40;1.30;;;16.30;82.60;;;;;;5049138;28;20720;-87
2022/07/09 06:18:05;;;;;;;1.77;1.67;;;16.40;81.50;;;;;;5051181;28;20653;-85
2022/07/09 06:20:32;;;;;;;1.40;1.23;;;16.50;80.80;;;;;;5047988;28;20630;-86
2022/07/09 06:22:59;;;;;;;2.00;1.70;;;16.50;80.80;;;;;;5055947;28;21187;-84
2022/07/09 06:25:25;;;;;;;1.10;1.10;;;16.60;79.60;;;;;;5053530;28;20722;-86
2022/07/09 06:27:52;;;;;;;2.30;2.17;;;16.70;80.10;;;;;;5052259;28;21142;-86
2022/07/09 06:30:21;;;;;;;1.00;1.00;;;16.80;79.60;;;;;;5047627;28;20618;-85
2022/07/09 06:32:47;;;;;;;2.53;1.43;;;16.80;79.60;;;;;;5049774;28;21414;-86
2022/07/09 06:35:14;;;;;;;2.03;1.83;;;16.80;78.80;;;;;;5048698;28;20716;-85
2022/07/09 06:37:42;;;;;;;2.10;1.50;;;17.00;77.00;;;;;;5053168;28;20757;-86
2022/07/09 06:40:09;;;;;;;1.30;1.20;;;16.80;76.80;;;;;;5050754;28;20623;-86
2022/07/09 06:42:36;;;;;;;1.47;1.17;;;16.90;76.00;;;;;;5052799;28;20662;-85
2022/07/09 06:45:03;;;;;;;2.20;1.67;;;16.80;76.30;;;;;;5055177;28;20628;-87
2022/07/09 06:47:32;;;;;;;1.63;1.33;;;16.90;77.80;;;;;;5053255;28;20649;-86
2022/07/09 06:49:59;;;;;;;1.50;1.40;;;17.00;76.60;;;;;;5048845;28;20662;-85
2022/07/09 06:52:25;;;;;;;1.27;1.17;;;17.10;75.40;;;;;;5050819;28;21197;-85
2022/07/09 06:54:52;;;;;;;0.80;0.80;;;17.10;75.10;;;;;;5061558;28;20732;-86
2022/07/09 06:57:19;;;;;;;1.77;1.67;;;17.10;77.80;;;;;;5055228;28;20622;-85
2022/07/09 06:59:46;;;;;;;1.23;1.13;;;17.10;75.60;;;;;;5054755;28;20622;-89
2022/07/09 07:02:16;;;;;;;1.60;1.20;;;17.30;74.20;;;;;;5054401;28;20660;-85
2022/07/09 07:04:44;;;;;;;1.37;1.27;;;17.30;75.20;;;;;;5056441;28;21340;-87
2022/07/09 07:07:11;;;;;;;3.40;1.40;;;17.40;76.10;;;;;;5054605;28;20682;-85
2022/07/09 07:09:38;;;;;;;2.67;1.60;;;17.60;75.60;;;;;;5049450;28;20725;-85
2022/07/09 07:12:06;;;;;;;1.63;1.37;;;17.70;75.20;;;;;;5047728;28;20721;-85
2022/07/09 07:14:33;;;;;;;0.90;0.90;;;17.90;75.50;;;;;;5058463;28;20628;-85
2022/07/09 07:17:00;;;;;;;2.37;1.50;;;18.10;74.80;;;;;;5054331;28;20690;-85
2022/07/09 07:19:27;;;;;;;2.43;1.60;;;18.30;74.70;;;;;;5053269;28;20660;-85
2022/07/09 07:21:55;;;;;;;1.30;1.20;;;18.40;75.70;;;;;;5053413;28;20641;-85
2022/07/09 07:24:22;;;;;;;2.43;1.67;;;18.60;75.80;;;;;;5053479;28;20724;-87
2022/07/09 07:26:49;;;;;;;1.90;1.53;;;18.80;74.80;;;;;;5058725;28;20625;-86
2022/07/09 07:29:16;;;;;;;1.63;1.50;;;18.90;74.00;;;;;;5052067;28;20730;-87
2022/07/09 07:31:43;;;;;;;1.23;1.13;;;19.00;72.20;;;;;;5055025;28;21163;-87
2022/07/09 07:34:10;;;;;;;1.27;1.17;;;19.10;69.10;;;;;;5059453;28;20617;-88
2022/07/09 07:36:36;;;;;;;1.30;1.20;;;19.10;66.40;;;;;;5053444;28;20626;-87
2022/07/09 07:39:05;;;;;;;1.27;1.17;;;19.20;66.50;;;;;;5053867;28;20671;-87
2022/07/09 07:41:32;;;;;;;0.83;0.83;;;19.10;69.10;;;;;;5055758;28;20705;-88
2022/07/09 07:43:59;;;;;;;1.73;1.40;;;19.10;69.20;;;;;;5057645;28;20613;-87
2022/07/09 07:46:25;;;;;;;1.90;1.17;;;19.10;69.80;;;;;;5052809;28;20636;-86
2022/07/09 07:48:52;;;;;;;1.27;1.17;;;19.40;66.30;;;;;;5059851;28;20747;-87
2022/07/09 07:51:19;;;;;;;0.90;0.90;;;;;;;;;;5057890;28;20719;-88
2022/07/09 07:53:46;;;;;;;1.20;1.10;;;19.30;67.30;;;;;;5058742;28;20645;-87
2022/07/09 07:56:15;;;;;;;1.10;1.10;;;19.30;68.30;;;;;;5052605;28;20630;-87
2022/07/09 07:58:42;;;;;;;1.63;1.40;;;;;;;;;;5055289;28;20637;-87
2022/07/09 08:01:09;;;;;;;1.27;1.00;;;19.20;63.40;;;;;;5050748;28;20621;-88
2022/07/09 08:03:36;;;;;;;1.17;1.07;;;19.40;67.50;;;;;;5047002;28;20702;-87
2022/07/09 08:06:03;;;;;;;1.33;1.23;;;19.50;66.90;;;;;;5054526;28;20620;-87
2022/07/09 08:08:30;;;;;;;1.87;1.37;;;19.70;65.70;;;;;;5053955;28;20766;-86
2022/07/09 08:10:58;;;;;;;1.30;1.20;;;19.90;67.10;;;;;;5057001;28;21243;-87
2022/07/09 08:13:28;;;;;;;2.23;1.57;;;20.00;67.40;;;;;;5053455;28;20752;-86
2022/07/09 08:15:55;;;;;;;2.50;1.40;;;20.30;67.90;;;;;;5051767;28;20641;-88
2022/07/09 08:18:22;;;;;;;1.60;1.50;;;20.30;67.10;;;;;;5056827;28;20694;-87
2022/07/09 08:20:51;;;;;;;0.97;0.90;;;20.30;64.50;;;;;;5055327;28;20618;-87
2022/07/09 08:23:18;;;;;;;1.13;1.13;;;20.30;66.00;;;;;;5056437;28;20637;-86
2022/07/09 08:25:45;;;;;;;2.23;0.90;;;20.40;65.50;;;;;;5058253;28;20726;-87
2022/07/09 08:28:11;;;;;;;1.30;1.20;;;20.50;65.70;;;;;;5056434;28;20647;-86
2022/07/09 08:30:40;;;;;;;1.47;1.23;;;20.60;65.40;;;;;;5054264;28;20628;-87
2022/07/09 08:33:06;;;;;;;1.57;1.47;;;20.50;64.20;;;;;;5052917;28;21401;-87
2022/07/09 08:35:34;;;;;;;1.40;1.30;;;21.10;63.50;;;;;;5056915;28;21412;-86
2022/07/09 08:38:01;;;;;;;0.77;0.77;;;;;;;;;;5053403;28;20628;-86
2022/07/09 08:40:28;;;;;;;1.50;1.20;;;21.20;62.50;;;;;;5055516;28;20721;-87
2022/07/09 08:42:55;;;;;;;0.80;0.80;;;21.50;62.50;;;;;;5057614;28;21443;-87
2022/07/09 08:45:22;;;;;;;1.10;0.90;;;;;;;;;;5057020;28;20710;-87
2022/07/09 08:47:52;;;;;;;1.37;1.27;;;21.60;63.10;;;;;;5057728;28;20772;-87
2022/07/09 08:50:20;;;;;;;1.20;0.90;;;21.60;63.40;;;;;;5057890;28;20646;-87
2022/07/09 08:52:47;;;;;;;1.27;1.17;;;21.30;61.30;;;;;;5052815;28;20649;-87
2022/07/09 08:55:15;;;;;;;0.97;0.80;;;;;;;;;;5059900;28;20617;-86
2022/07/09 08:57:43;;;;;;;0.93;0.77;;;21.30;62.10;;;;;;5055390;28;21237;-88
2022/07/09 09:00:11;;;;;;;1.53;1.30;;;;;;;;;;5051842;28;20722;-87
2022/07/09 09:02:38;;;;;;;1.23;1.13;;;;;;;;;;5052031;28;20632;-87
2022/07/09 09:05:16;;;;;;;1.07;1.00;;;22.20;60.30;;;;;;5050822;28;21005;-88
2022/07/09 09:07:43;;;;;;;1.30;1.20;;;23.60;64.50;;;;;;5048979;28;20710;-88
2022/07/09 09:10:24;;;;;;;1.30;1.20;;;22.30;62.60;;;;;;5055068;28;20614;-88
2022/07/09 09:12:56;;;;;;;1.27;1.00;;;22.30;63.30;;;;;;5051143;28;20687;-88
2022/07/09 09:15:23;;;;;;;1.23;1.00;;;22.80;61.90;;;;;;5057978;28;20636;-87
2022/07/09 09:17:51;;;;;;;1.10;0.90;;;;;;;;;;5055063;28;20721;-87
2022/07/09 09:20:20;;;;;;;1.10;1.10;;;22.90;59.20;;;;;;5054968;28;20615;-89
2022/07/09 09:22:48;;;;;;;0.73;0.73;;;23.10;58.80;;;;;;5056171;28;20714;-86
2022/07/09 09:25:19;;;;;;;3.23;1.17;;;23.30;57.60;;;;;;5063435;28;20650;-86
2022/07/09 09:27:53;;;;;;;1.57;1.47;;;23.40;58.30;;;;;;5050555;28;20748;-85
2022/07/09 09:30:20;;;;;;;1.40;1.30;;;23.60;58.10;;;;;;5055679;28;20697;-86
2022/07/09 09:32:57;;;;;;;1.13;1.03;;;23.80;57.70;;;;;;5051935;28;20649;-88
2022/07/09 09:35:26;;;;;;;2.10;1.20;;;23.80;57.30;;;;;;5054741;28;20613;-88
2022/07/09 09:37:53;;;;;;;1.40;1.30;;;24.00;56.50;;;;;;5053493;28;20629;-87
2022/07/09 09:40:20;;;;;;;0.93;0.93;;;;;;;;;;5049981;28;20621;-88
2022/07/09 09:42:47;;;;;;;1.20;1.20;;;;;;;;;;5056286;28;20726;-88
2022/07/09 09:45:15;;;;;;;1.10;1.00;;;24.10;57.50;;;;;;5053767;28;20695;-87
2022/07/09 09:47:47;;;;;;;1.00;1.00;;;24.20;57.50;;;;;;5056604;28;20623;-87
2022/07/09 09:50:18;;;;;;;0.80;0.80;;;24.20;56.60;;;;;;5049771;28;20633;-88
2022/07/09 09:52:57;;;;;;;1.47;1.37;;;24.00;56.30;;;;;;5050959;28;20694;-90
2022/07/09 09:55:29;;;;;;;0.63;0.60;;;;;;;;;;5056239;28;21062;-90
2022/07/09 09:57:57;;;;;;;1.00;1.00;;;23.60;56.10;;;;;;5050371;28;20637;-89
2022/07/09 10:00:25;;;;;;;1.10;1.10;;;23.50;57.50;;;;;;5056491;28;20682;-89
2022/07/09 10:02:52;;;;;;;1.23;1.13;;;;;;;;;;5058515;28;20632;-89
2022/07/09 10:05:19;;;;;;;1.00;0.90;;;22.90;57.50;;;;;;5052677;28;20679;-89
2022/07/09 10:07:47;;;;;;;1.47;1.37;;;23.20;60.10;;;;;;5054675;28;20621;-90
2022/07/09 10:10:19;;;;;;;0.97;0.97;;;23.20;57.70;;;;;;5052238;28;20613;-89
2022/07/09 10:12:47;;;;;;;1.20;1.10;;;22.80;59.40;;;;;;5057543;28;20625;-89
2022/07/09 10:15:26;;;;;;;0.87;0.87;;;22.70;59.30;;;;;;5056195;28;20618;-90
2022/07/09 10:17:57;;;;;;;1.10;1.10;;;23.10;59.90;;;;;;5050619;28;20763;-91
2022/07/09 10:20:38;;;;;;;1.17;1.10;;;23.50;58.60;;;;;;5057887;28;20606;-90
2022/07/09 10:23:11;;;;;;;1.10;0.90;;;23.80;56.60;;;;;;5053003;28;20630;-91
2022/07/09 10:25:56;;;;;;;0.90;0.90;;;24.00;57.80;;;;;;5059546;28;20621;-91
2022/07/09 10:28:27;;;;;;;1.47;1.00;;;23.90;54.30;;;;;;5053861;28;20658;-91
2022/07/09 10:30:56;;;;;;;0.90;0.90;;;24.10;54.20;;;;;;5055462;28;20732;-90
2022/07/09 10:33:32;;;;;;;1.20;1.10;;;24.20;54.00;;;;;;5056783;28;20631;-88
2022/07/09 10:36:11;;;;;;;1.33;1.23;;;24.30;55.90;;;;;;5053705;28;20672;-89
2022/07/09 10:38:43;;;;;;;1.33;1.23;;;24.40;54.60;;;;;;5050285;28;20646;-91
2022/07/09 10:41:22;;;;;;;0.83;0.83;;;24.70;55.50;;;;;;5052964;28;20657;-89
2022/07/09 10:43:51;;;;;;;1.20;1.10;;;25.00;54.70;;;;;;5051592;28;20660;-89
2022/07/09 10:46:21;;;;;;;1.00;1.00;;;24.60;53.70;;;;;;5056239;28;20626;-92
2022/07/09 10:48:49;;;;;;;1.53;1.30;;;;;;;;;;5053614;28;20692;-89
2022/07/09 10:51:19;;;;;;;0.80;0.80;;;24.70;54.10;;;;;;5056428;28;20597;-87
2022/07/09 10:53:53;;;;;;;0.80;0.80;;;24.80;53.90;;;;;;5052199;28;20628;-92
2022/07/09 10:56:20;;;;;;;0.80;0.80;;;24.80;54.40;;;;;;5059209;28;20711;-88
2022/07/09 10:58:52;;;;;;;1.10;0.97;;;25.20;54.90;;;;;;5052483;28;21284;-89
2022/07/09 11:01:21;;;;;;;1.50;1.30;;;25.20;53.80;;;;;;5058370;28;20625;-88
2022/07/09 11:03:51;;;;;;;1.17;0.80;;;25.20;53.70;;;;;;5054413;28;20633;-89
2022/07/09 11:06:18;;;;;;;1.55;1.05;;;25.10;54.60;;;;;;5057987;28;20760;-85
2022/07/09 11:08:46;;;;;;;1.20;1.10;;;25.30;52.70;;;;;;5053620;28;20845;-86
2022/07/09 11:11:20;;;;;;;0.80;0.80;;;25.00;52.30;;;;;;5047418;28;20711;-89
2022/07/09 11:13:51;;;;;;;0.90;0.90;;;24.90;53.30;;;;;;5049441;28;20619;-88
2022/07/09 11:16:23;;;;;;;1.60;0.70;;;25.00;54.20;;;;;;5054352;28;20610;-87
2022/07/09 11:18:50;;;;;;;0.87;0.87;;;24.50;53.10;;;;;;5052540;28;20628;-87
2022/07/09 11:21:22;;;;;;;1.10;0.87;;;24.50;53.60;;;;;;5056557;28;20629;-89
2022/07/09 11:23:51;;;;;;;1.60;1.17;;;24.40;55.20;;;;;;5050368;28;20635;-86
2022/07/09 11:26:18;;;;;;;1.00;1.00;;;;;;;;;;5056632;28;20676;-86
2022/07/09 11:28:48;;;;;;;0.83;0.83;;;24.10;54.10;;;;;;5053361;28;21077;-86
2022/07/09 11:31:17;;;;;;;0.90;0.90;;;24.00;56.00;;;;;;5053739;28;20632;-86
2022/07/09 11:36:36;;;;;;;1.77;1.03;;;23.80;56.40;;;;;;5050484;28;20755;-86
2022/07/09 11:39:05;;;;;;;1.03;1.00;;;23.90;56.60;;;;;;5057212;28;21894;-88
2022/07/09 11:41:41;;;;;;;1.02;1.00;;;23.80;56.00;;;;;;5052288;28;21300;-86
2022/07/09 11:44:11;;;;;;;0.90;0.90;;;23.70;55.40;;;;;;5052838;28;20647;-89
2022/07/09 11:46:39;;;;;;;1.07;0.97;;;23.70;57.30;;;;;;5052586;28;20729;-86
2022/07/09 11:49:15;;;;;;;1.97;0.93;;;23.80;56.90;;;;;;5061954;28;21096;-87
2022/07/09 11:51:42;;;;;;;0.80;0.80;;;23.90;57.50;;;;;;5055351;28;20722;-86
2022/07/09 11:54:11;;;;;;;0.73;0.73;;;24.10;57.30;;;;;;5053858;28;20638;-85
2022/07/09 11:56:43;;;;;;;1.00;1.00;;;24.30;56.40;;;;;;5057501;28;20617;-86
2022/07/09 11:59:10;;;;;;;0.60;0.60;;;24.40;56.30;;;;;;5052726;28;20616;-87
2022/07/09 12:01:38;;;;;;;1.00;1.00;;;24.50;56.40;;;;;;5057859;28;20680;-86
2022/07/09 12:04:05;;;;;;;0.80;0.70;;;24.70;56.90;;;;;;5052419;28;20667;-87
2022/07/09 12:06:32;;;;;;;1.30;1.10;;;;;;;;;;5056523;28;20685;-86
2022/07/09 12:09:04;;;;;;;1.50;1.07;;;25.80;54.70;;;;;;5049747;28;20762;-85
2022/07/09 12:11:32;;;;;;;1.50;0.90;;;26.00;54.80;;;;;;5052833;28;20633;-87
2022/07/09 12:13:59;;;;;;;0.93;0.80;;;25.90;54.70;;;;;;5058709;28;21846;-86
2022/07/09 12:16:26;;;;;;;1.17;1.07;;;25.80;54.00;;;;;;5055691;28;20966;-86
2022/07/09 12:18:53;;;;;;;1.00;1.00;;;25.00;53.40;;;;;;5052952;28;20885;-85
2022/07/09 12:21:20;;;;;;;0.90;0.90;;;24.90;56.00;;;;;;5054464;28;21050;-87
2022/07/09 12:23:47;;;;;;;0.70;0.70;;;24.40;54.90;;;;;;5053099;28;20695;-87
2022/07/09 12:26:14;;;;;;;1.20;0.90;;;24.60;56.60;;;;;;5056061;28;20684;-86
2022/07/09 12:28:42;;;;;;;0.90;0.90;;;24.80;56.10;;;;;;5058701;28;20618;-86
2022/07/09 12:31:09;;;;;;;1.13;1.13;;;25.00;56.10;;;;;;5050867;28;20987;-86
2022/07/09 12:33:36;;;;;;;1.17;1.00;;;25.30;56.50;;;;;;5055777;28;20710;-87
2022/07/09 12:36:08;;;;;;;0.70;0.70;;;25.50;55.50;;;;;;5056581;28;20726;-87
2022/07/09 12:38:36;;;;;;;0.70;0.70;;;;;;;;;;5052066;28;20702;-86
2022/07/09 12:41:03;;;;;;;2.90;0.70;;;26.80;52.30;;;;;;5052337;28;21274;-86
2022/07/09 12:43:43;;;;;;;1.60;0.80;;;26.30;51.20;;;;;;5058162;28;20629;-89
2022/07/09 12:46:13;;;;;;;0.83;0.60;;;27.20;53.80;;;;;;5056492;28;20625;-87
2022/07/09 12:48:40;;;;;;;0.80;0.80;;;27.20;54.00;;;;;;5053709;28;20757;-86
2022/07/09 12:51:07;;;;;;;0.83;0.83;;;29.30;51.80;;;;;;5054812;28;20613;-86
2022/07/09 12:53:38;;;;;;;1.00;1.00;;;30.00;49.00;;;;;;5060397;28;20649;-89
2022/07/09 12:56:06;;;;;;;1.73;0.80;;;29.20;48.80;;;;;;5059606;28;20629;-87
2022/07/09 12:58:38;;;;;;;0.90;0.90;;;28.50;49.60;;;;;;5056105;28;21237;-89
2022/07/09 13:01:06;;;;;;;1.20;1.00;;;;;;;;;;5056118;28;20614;-87
2022/07/09 13:03:34;;;;;;;1.03;0.93;;;29.20;48.20;;;;;;5054900;28;20680;-87